首页
METAR-TAF:

METAR-TAF

机场 :

Homerville, 喬治亞, 美国

纬度: 31-03-21N, 经度: 082-46-27W, 海拔: 57米

当前天气观测

该预报发布于27分钟前的20:15 UTC
风速7节,风向北转西北
温度 16°C
湿度 59%
气压 1013 hPa
天空无云

METAR: KHOE 172015Z 34007KT CLR 16/08 A2990 RMK AO2

时间: 15:42 (20:42 UTC)


TAF: 丢失

超过4000个机场的气象观测和天气预报(METAR&TAF报告)。

可查询的气象台以黄色和红色小点在地图上表示。

将鼠标移到小点上方,可查看气象台名称。

然后点击查看天气观测和预报。

如需切换地图:点击带黑十字的绿色按钮放大地图;点击带横线的绿色按钮缩小地图;或者点击绿色箭头查看邻近地区的地图。


METAR-TAF: